Time;durP1;ratioP1;P1;durP2;ratioP2;P2;SDS_P1;SDS_P2;PMS_P1;PMS_P2;Temp;Humidity;BMP_temperature;BMP_pressure;BME280_temperature;BME280_humidity;BME280_pressure;Samples;Min_cycle;Max_cycle;Signal;HPM_P1;HPM_P2
2022/09/22 00:04:52;;;;;;;8.57;2.80;;;;;;;8.37;93.69;101363.27;3409144;84;98542;-87
2022/09/22 00:09:53;;;;;;;10.60;3.33;;;;;;;8.34;93.61;101359.86;3424582;84;31720;-87
2022/09/22 00:14:54;;;;;;;8.00;3.10;;;;;;;8.31;93.72;101362.70;3421906;84;98826;-86
2022/09/22 00:19:55;;;;;;;6.50;2.93;;;;;;;8.26;93.85;101357.98;3437176;84;31627;-86
2022/09/22 00:24:57;;;;;;;7.10;2.63;;;;;;;8.25;93.89;101365.98;3436768;84;98392;-86
2022/09/22 00:29:59;;;;;;;7.97;3.03;;;;;;;8.23;93.89;101360.84;3425478;84;32270;-86
2022/09/22 00:35:00;;;;;;;7.53;2.73;;;;;;;8.19;93.82;101364.57;3419413;84;98540;-87
2022/09/22 00:40:02;;;;;;;7.97;3.20;;;;;;;8.13;93.62;101361.23;3420540;85;32142;-87
2022/09/22 00:45:05;;;;;;;6.15;2.75;;;;;;;8.08;93.68;101357.91;3442823;84;98533;-87
2022/09/22 00:50:19;;;;;;;13.10;3.40;;;;;;;8.02;93.64;101362.00;3427796;84;30746;-87
2022/09/22 00:55:37;;;;;;;8.10;3.45;;;;;;;7.95;93.61;101364.47;3403056;84;98582;-87
2022/09/22 01:00:38;;;;;;;8.67;3.40;;;;;;;7.88;93.47;101360.92;3419225;84;26904;-87
2022/09/22 01:05:41;;;;;;;7.60;3.50;;;;;;;7.81;93.65;101359.27;3416182;84;98548;-87
2022/09/22 01:10:43;;;;;;;7.87;3.87;;;;;;;7.76;93.67;101360.06;3444495;84;31381;-86
2022/09/22 01:16:06;;;;;;;8.90;4.30;;;;;;;7.72;93.76;101359.93;3436815;84;98252;-86
2022/09/22 01:21:41;;;;;;;11.95;4.53;;;;;;;7.69;93.77;101352.37;3430134;83;98507;-85
2022/09/22 01:27:02;;;;;;;8.48;4.08;;;;;;;7.63;93.86;101352.34;3438992;83;31687;-86
2022/09/22 01:32:25;;;;;;;11.48;4.58;;;;;;;7.56;93.83;101356.75;3427765;83;98409;-86
2022/09/22 01:37:34;;;;;;;7.78;4.28;;;;;;;7.50;93.96;101354.80;3423611;85;33620;-86
2022/09/22 01:42:46;;;;;;;7.27;4.13;;;;;;;7.46;93.96;101353.84;3428065;85;98756;-86
2022/09/22 01:47:55;;;;;;;7.45;3.77;;;;;;;7.41;93.97;101347.20;3444234;83;33400;-86
2022/09/22 01:53:00;;;;;;;7.35;3.60;;;;;;;7.38;94.11;101345.70;3430143;83;98658;-86
2022/09/22 01:58:14;;;;;;;8.67;4.60;;;;;;;7.33;94.05;101341.78;3453786;83;30650;-86
2022/09/22 02:03:45;;;;;;;8.17;4.40;;;;;;;7.28;93.81;101344.72;3372736;85;98639;-86
2022/09/22 02:08:57;;;;;;;8.25;4.33;;;;;;;7.22;94.13;101343.31;3457821;83;33399;-85
2022/09/22 02:13:58;;;;;;;9.50;4.00;;;;;;;7.15;94.03;101348.52;3445671;83;98578;-85
2022/09/22 02:19:09;;;;;;;9.23;4.37;;;;;;;7.11;94.01;101344.83;3421362;85;30408;-86
2022/09/22 02:24:34;;;;;;;8.67;4.07;;;;;;;7.08;94.23;101344.11;3448685;83;98570;-86
2022/09/22 02:29:40;;;;;;;8.60;4.03;;;;;;;7.03;94.22;101346.48;3421051;85;31819;-86
2022/09/22 02:34:44;;;;;;;7.33;3.42;;;;;;;7.00;94.20;101348.53;3423848;83;98441;-87
2022/09/22 02:40:12;;;;;;;7.43;3.17;;;;;;;6.96;94.20;101345.39;3449624;83;27576;-86
2022/09/22 02:45:21;;;;;;;6.78;3.20;;;;;;;6.93;94.41;101339.23;3418962;85;98301;-86
2022/09/22 02:50:25;;;;;;;5.53;2.70;;;;;;;6.90;94.52;101340.69;3423173;85;30438;-86
2022/09/22 02:55:26;;;;;;;5.43;2.87;;;;;;;6.86;94.53;101342.48;3442298;83;98334;-86
2022/09/22 03:00:27;;;;;;;6.80;3.20;;;;;;;6.83;94.53;101337.65;3433003;85;31621;-87
2022/09/22 03:05:28;;;;;;;6.83;3.00;;;;;;;6.81;94.62;101339.92;3425918;83;98019;-86
2022/09/22 03:10:29;;;;;;;7.47;3.20;;;;;;;6.79;94.74;101340.02;3430163;83;31642;-87
2022/09/22 03:15:30;;;;;;;6.37;3.00;;;;;;;6.79;94.81;101335.91;3455196;82;98620;-86
2022/09/22 03:20:31;;;;;;;6.63;3.27;;;;;;;6.78;94.84;101332.95;3479076;84;31637;-86
2022/09/22 03:25:32;;;;;;;7.43;3.23;;;;;;;6.76;94.90;101331.12;3490566;82;98406;-86
2022/09/22 03:30:34;;;;;;;7.53;3.60;;;;;;;6.73;95.05;101329.84;3480773;83;31606;-86
2022/09/22 03:35:35;;;;;;;9.27;3.87;;;;;;;6.72;94.95;101334.27;3490713;82;97910;-87
2022/09/22 03:40:38;;;;;;;8.10;3.47;;;;;;;6.67;94.86;101339.92;3481238;82;31578;-86
2022/09/22 03:45:39;;;;;;;9.00;3.77;;;;;;;6.62;95.00;101349.12;3457232;82;98052;-87
2022/09/22 03:50:40;;;;;;;9.13;4.33;;;;;;;6.61;95.03;101348.86;3505950;82;31904;-87
2022/09/22 03:55:41;;;;;;;10.70;5.53;;;;;;;6.60;95.02;101349.21;3470159;82;98198;-86
2022/09/22 04:00:42;;;;;;;10.53;5.77;;;;;;;6.57;94.93;101345.75;3468070;84;31565;-87
2022/09/22 04:05:51;;;;;;;12.37;6.45;;;;;;;6.53;95.08;101342.88;3472057;82;99819;-87
2022/09/22 04:10:52;;;;;;;14.10;6.53;;;;;;;6.48;94.79;101338.95;3475967;84;32418;-87
2022/09/22 04:15:53;;;;;;;13.50;6.80;;;;;;;6.44;95.07;101333.89;3469973;84;98837;-86
2022/09/22 04:20:58;;;;;;;17.10;7.53;;;;;;;6.41;94.89;101333.19;3480291;82;31605;-87
2022/09/22 04:26:00;;;;;;;15.20;7.10;;;;;;;6.38;95.23;101338.52;3487703;82;98399;-86
2022/09/22 04:31:01;;;;;;;14.83;7.60;;;;;;;6.36;95.24;101331.19;3450801;84;26542;-87
2022/09/22 04:36:02;;;;;;;13.30;7.60;;;;;;;6.34;95.12;101330.72;3465412;83;98377;-87
2022/09/22 04:41:04;;;;;;;14.27;7.80;;;;;;;6.31;95.02;101334.09;3436933;83;32167;-87
2022/09/22 04:46:05;;;;;;;15.00;7.50;;;;;;;6.27;95.18;101332.58;3459581;84;98556;-87
2022/09/22 04:51:06;;;;;;;13.48;7.42;;;;;;;6.24;95.08;101328.33;3481390;82;98366;-86
2022/09/22 04:56:07;;;;;;;16.73;7.70;;;;;;;6.22;95.19;101334.12;3443599;83;32434;-87
2022/09/22 05:01:08;;;;;;;14.77;7.90;;;;;;;6.21;95.23;101333.10;3465921;82;98685;-85
2022/09/22 05:06:09;;;;;;;13.40;8.00;;;;;;;6.20;95.36;101338.30;3482509;82;31671;-86
2022/09/22 05:11:11;;;;;;;15.17;7.53;;;;;;;6.19;95.47;101348.45;3466278;82;98959;-87
2022/09/22 05:16:12;;;;;;;13.80;8.10;;;;;;;6.14;95.13;101349.98;3478523;82;32500;-87
2022/09/22 05:21:13;;;;;;;14.70;8.80;;;;;;;6.10;95.31;101350.95;3470807;82;98665;-87
2022/09/22 05:26:13;;;;;;;14.90;8.63;;;;;;;6.10;95.23;101348.21;3461533;84;32168;-86
2022/09/22 05:31:14;;;;;;;15.27;7.97;;;;;;;6.08;95.46;101352.66;3464786;83;98565;-86
2022/09/22 05:36:15;;;;;;;13.23;7.83;;;;;;;6.03;95.58;101350.09;3483277;82;33028;-86
2022/09/22 05:41:16;;;;;;;11.97;6.33;;;;;;;6.04;95.54;101350.33;3469503;84;99044;-86
2022/09/22 05:46:18;;;;;;;12.80;6.50;;;;;;;6.00;95.87;101343.90;3473956;83;34831;-86
2022/09/22 05:51:19;;;;;;;11.67;5.97;;;;;;;5.98;97.17;101346.16;3471068;82;98356;-86
2022/09/22 05:56:20;;;;;;;12.33;5.87;;;;;;;6.01;97.75;101350.18;3469792;84;34843;-86
2022/09/22 06:01:20;;;;;;;13.03;7.33;;;;;;;6.05;99.25;101356.03;3454641;84;98752;-86
2022/09/22 06:06:21;;;;;;;11.13;5.80;;;;;;;6.09;99.10;101356.99;3471053;82;34842;-85
2022/09/22 06:11:22;;;;;;;12.73;6.27;;;;;;;6.14;100.00;101360.11;3467391;82;98861;-87
2022/09/22 06:16:23;;;;;;;11.23;5.87;;;;;;;6.22;100.00;101359.30;3465976;83;35420;-86
2022/09/22 06:21:24;;;;;;;14.70;6.47;;;;;;;6.33;100.00;101361.34;3423441;83;98841;-86
2022/09/22 06:26:26;;;;;;;13.17;6.90;;;;;;;6.43;100.00;101366.47;3436879;84;34922;-86
2022/09/22 06:31:26;;;;;;;9.77;5.77;;;;;;;6.58;100.00;101370.59;3420369;83;98695;-86
2022/09/22 06:36:30;;;;;;;12.60;6.33;;;;;;;6.69;100.00;101374.58;3413959;85;34881;-85
2022/09/22 06:41:33;;;;;;;12.63;6.45;;;;;;;6.83;100.00;101373.80;3396793;85;98763;-86
2022/09/22 06:46:34;;;;;;;12.90;6.37;;;;;;;6.98;100.00;101378.73;3420343;83;30093;-86
2022/09/22 06:51:35;;;;;;;10.73;5.30;;;;;;;7.12;100.00;101378.73;3416613;83;98584;-86
2022/09/22 06:56:42;;;;;;;9.55;3.90;;;;;;;7.28;100.00;101382.50;3419596;84;34646;-86
2022/09/22 07:01:41;;;;;;;12.05;4.85;;;;;;;7.42;100.00;101383.61;3409943;84;98742;-85
2022/09/22 07:06:42;;;;;;;13.62;4.72;;;;;;;7.56;100.00;101389.06;3416900;83;35553;-85
2022/09/22 07:11:44;;;;;;;11.38;5.58;;;;;;;7.71;100.00;101386.30;3409045;85;98791;-87
2022/09/22 07:16:44;;;;;;;11.93;4.53;;;;;;;7.85;100.00;101375.87;3412378;84;26177;-85
2022/09/22 07:21:46;;;;;;;9.00;4.17;;;;;;;8.03;100.00;101367.16;3405953;85;98437;-85
2022/09/22 07:26:47;;;;;;;11.40;4.80;;;;;;;8.18;100.00;101372.58;3413426;85;26405;-85
2022/09/22 07:31:49;;;;;;;10.57;4.90;;;;;;;8.33;100.00;101380.17;3411035;84;98935;-85
2022/09/22 07:36:51;;;;;;;10.80;4.35;;;;;;;8.50;100.00;101371.78;3422140;85;34150;-85
2022/09/22 07:41:52;;;;;;;7.85;3.90;;;;;;;8.68;100.00;101372.58;3381716;85;98876;-85
2022/09/22 07:46:53;;;;;;;7.67;3.70;;;;;;;8.86;100.00;101371.25;3414551;85;26711;-86
2022/09/22 07:51:56;;;;;;;6.93;2.50;;;;;;;9.06;100.00;101375.80;3401258;84;98791;-86
2022/09/22 07:56:57;;;;;;;6.90;2.50;;;;;;;9.30;100.00;101371.69;3408013;85;33903;-85
2022/09/22 08:01:58;;;;;;;5.83;2.53;;;;;;;9.58;100.00;101370.36;3412019;84;98736;-85
2022/09/22 08:06:59;;;;;;;8.97;2.37;;;;;;;9.82;100.00;101380.70;3426472;84;27218;-86
2022/09/22 08:12:01;;;;;;;5.17;2.30;;;;;;;10.07;100.00;101374.58;3403290;85;98957;-86
2022/09/22 08:17:02;;;;;;;6.57;1.87;;;;;;;10.35;100.00;101372.03;3412009;85;27991;-86
2022/09/22 08:22:03;;;;;;;4.43;1.80;;;;;;;10.58;100.00;101369.50;3420059;84;99068;-86
2022/09/22 08:27:04;;;;;;;5.33;2.20;;;;;;;10.83;100.00;101368.97;3423307;85;26377;-87
2022/09/22 08:32:05;;;;;;;5.53;2.17;;;;;;;11.13;100.00;101373.44;3412507;83;99032;-87
2022/09/22 08:37:08;;;;;;;3.37;1.70;;;;;;;11.45;99.87;101383.24;3426327;85;27124;-87
2022/09/22 08:42:21;;;;;;;5.53;1.80;;;;;;;11.79;98.39;101386.58;3425792;83;99070;-87
2022/09/22 08:52:59;;;;;;;3.10;1.50;;;;;;;12.84;100.00;101376.99;3426569;83;98725;-88
2022/09/22 08:58:27;;;;;;;3.30;1.10;;;;;;;13.84;100.00;101369.84;3427135;84;34873;-87
2022/09/22 09:03:39;;;;;;;2.40;1.00;;;;;;;14.72;98.53;101369.64;3432833;83;99143;-87
2022/09/22 09:09:12;;;;;;;2.10;0.80;;;;;;;15.72;96.36;101366.66;3407001;85;35455;-86
2022/09/22 09:14:18;;;;;;;3.05;1.00;;;;;;;16.49;92.37;101368.34;3414608;85;98915;-87
2022/09/22 09:19:34;;;;;;;2.85;0.80;;;;;;;17.44;92.34;101356.63;3411448;84;35772;-87
2022/09/22 09:24:40;;;;;;;4.65;1.25;;;;;;;18.43;89.35;101352.88;3425010;84;98704;-87
2022/09/22 09:30:00;;;;;;;;;;;;;;;18.28;82.04;101363.29;3404054;84;25903;-85
2022/09/22 09:35:02;;;;;;;1.50;0.93;;;;;;;18.51;77.00;101370.55;3415047;84;84957;-87
2022/09/22 09:40:08;;;;;;;2.47;1.22;;;;;;;18.59;79.24;101358.75;3429230;84;34934;-86
2022/09/22 09:45:13;;;;;;;;;;;;;;;18.18;77.03;101364.72;3434684;84;98709;-86
2022/09/22 09:50:15;;;;;;;2.25;0.80;;;;;;;18.28;75.56;101359.70;3430322;84;34955;-85
2022/09/22 09:55:25;;;;;;;1.87;0.62;;;;;;;18.63;78.05;101356.73;3420446;84;98862;-86
2022/09/22 10:00:32;;;;;;;1.77;0.80;;;;;;;18.92;75.49;101353.91;3425133;84;34934;-88
2022/09/22 10:05:36;;;;;;;2.15;1.20;;;;;;;18.90;70.96;101356.30;3424560;83;98816;-87
2022/09/22 10:10:39;;;;;;;1.75;0.70;;;;;;;19.31;70.91;101350.20;3434285;83;34805;-86
2022/09/22 10:15:42;;;;;;;1.05;0.65;;;;;;;19.97;70.99;101360.62;3425168;84;98628;-87
2022/09/22 10:20:43;;;;;;;2.10;0.80;;;;;;;20.32;69.97;101352.41;3440399;83;34908;-85
2022/09/22 10:25:43;;;;;;;1.00;0.72;;;;;;;20.69;69.77;101353.04;3452934;83;98777;-87
2022/09/22 10:31:03;;;;;;;1.47;0.80;;;;;;;20.81;67.91;101353.07;3463431;83;32995;-87
2022/09/22 10:36:09;;;;;;;1.60;0.80;;;;;;;20.85;67.77;101350.98;3451028;84;98488;-86
2022/09/22 10:41:13;;;;;;;2.02;0.70;;;;;;;20.85;67.33;101348.19;3460925;84;98868;-88
2022/09/22 10:46:35;;;;;;;2.40;1.30;;;;;;;20.65;65.82;101341.11;3459444;82;29748;-90
2022/09/22 10:51:54;;;;;;;2.37;1.00;;;;;;;20.68;64.95;101344.47;3472718;84;98908;-87
2022/09/22 10:57:07;;;;;;;1.95;0.82;;;;;;;20.81;64.57;101335.66;3469665;83;35271;-87
2022/09/22 11:02:44;;;;;;;1.95;0.60;;;;;;;20.75;63.35;101344.34;3465060;83;98903;-87
2022/09/22 11:13:30;;;;;;;1.12;0.60;;;;;;;20.54;62.36;101335.51;3458154;83;98794;-87
2022/09/22 11:18:56;;;;;;;2.27;0.80;;;;;;;20.51;62.38;101325.95;3441144;83;34934;-88
2022/09/22 11:24:20;;;;;;;1.50;0.68;;;;;;;20.53;62.31;101336.10;3434609;84;98743;-87
2022/09/22 11:29:46;;;;;;;1.45;0.60;;;;;;;20.37;61.67;101333.73;3356119;86;35404;-87
2022/09/22 11:35:14;;;;;;;0.82;0.42;;;;;;;20.28;61.63;101328.67;3351310;86;98747;-87
2022/09/22 11:40:52;;;;;;;1.40;0.65;;;;;;;20.22;61.41;101325.39;3359157;86;35408;-87
2022/09/22 11:46:04;;;;;;;1.47;0.60;;;;;;;20.16;61.48;101326.45;3360131;85;98888;-88
2022/09/22 11:51:32;;;;;;;1.87;0.82;;;;;;;20.04;61.33;101321.41;3346126;86;35782;-87
2022/09/22 11:56:46;;;;;;;2.70;1.30;;;;;;;19.94;61.47;101313.95;3359783;86;35426;-87
2022/09/22 12:01:48;;;;;;;1.15;0.60;;;;;;;19.83;61.14;101316.09;3330528;86;98783;-87
2022/09/22 12:06:54;;;;;;;3.25;0.78;;;;;;;19.82;61.18;101315.09;3350795;86;34863;-87
2022/09/22 12:11:56;;;;;;;3.90;0.80;;;;;;;19.75;60.63;101307.63;3321356;85;99079;-87
2022/09/22 12:17:17;;;;;;;3.70;0.80;;;;;;;19.61;60.77;101304.20;3377483;85;34871;-87
2022/09/22 12:22:26;;;;;;;0.88;0.60;;;;;;;19.52;60.78;101303.91;3335554;84;98756;-87
2022/09/22 12:27:29;;;;;;;1.62;0.80;;;;;;;19.39;61.27;101293.06;3320253;86;35138;-86
2022/09/22 12:32:42;;;;;;;1.22;0.70;;;;;;;19.20;60.79;101301.44;3304918;86;98909;-86
2022/09/22 12:37:44;;;;;;;2.05;0.55;;;;;;;19.13;61.29;101295.13;3345351;86;34808;-86
2022/09/22 12:42:49;;;;;;;1.72;0.60;;;;;;;18.88;60.20;101288.98;3339295;86;98875;-86
2022/09/22 12:47:54;;;;;;;2.02;0.68;;;;;;;18.85;60.79;101286.41;3338008;87;26508;-87
2022/09/22 12:53:23;;;;;;;0.82;0.55;;;;;;;18.78;60.19;101286.48;3320709;86;98919;-87
2022/09/22 12:58:36;;;;;;;3.55;0.80;;;;;;;18.83;60.53;101286.05;3331469;86;34844;-86
2022/09/22 13:03:42;;;;;;;0.62;0.53;;;;;;;18.87;61.40;101288.20;3321933;86;98985;-87
2022/09/22 13:08:54;;;;;;;3.75;0.98;;;;;;;18.84;61.24;101291.81;3330756;87;34826;-87
2022/09/22 13:13:57;;;;;;;0.98;0.62;;;;;;;18.83;61.28;101283.26;3330149;86;99029;-87
2022/09/22 13:18:59;;;;;;;3.92;1.37;;;;;;;18.81;60.96;101282.86;3331292;87;34887;-88
2022/09/22 13:24:03;;;;;;;2.50;0.80;;;;;;;18.79;60.75;101281.68;3346103;85;98860;-87
2022/09/22 13:29:19;;;;;;;1.25;0.60;;;;;;;18.81;60.90;101277.90;3347410;85;34808;-88
2022/09/22 13:34:28;;;;;;;2.10;0.80;;;;;;;18.75;60.75;101274.74;3336361;87;98851;-87
2022/09/22 13:39:37;;;;;;;2.25;0.80;;;;;;;18.77;60.87;101270.96;3332338;87;42465;-88
2022/09/22 13:44:41;;;;;;;1.20;0.62;;;;;;;18.79;60.90;101275.52;3330737;87;98621;-88
2022/09/22 13:49:48;;;;;;;1.20;0.82;;;;;;;18.79;61.10;101270.53;3340140;87;34871;-87
2022/09/22 13:54:53;;;;;;;1.05;0.75;;;;;;;18.75;60.54;101274.74;3336104;87;98478;-88
2022/09/22 14:00:04;;;;;;;1.43;0.60;;;;;;;18.76;60.51;101261.61;3337391;87;26498;-88
2022/09/22 14:05:08;;;;;;;7.35;1.50;;;;;;;18.72;60.74;101269.20;3331308;85;98801;-88
2022/09/22 14:10:13;;;;;;;2.20;0.72;;;;;;;18.76;60.75;101265.79;3321973;87;35794;-87
2022/09/22 14:15:44;;;;;;;4.58;1.65;;;;;;;18.72;60.18;101260.84;3349982;85;98691;-87
2022/09/22 14:20:46;;;;;;;4.10;1.42;;;;;;;18.66;60.73;101253.53;3355690;85;34848;-88
2022/09/22 14:25:47;;;;;;;2.98;1.10;;;;;;;18.60;60.27;101259.36;3330623;85;98359;-87
2022/09/22 14:30:49;;;;;;;4.62;1.60;;;;;;;18.58;60.65;101260.98;3352140;87;35496;-87
2022/09/22 14:36:00;;;;;;;7.78;3.20;;;;;;;18.52;61.21;101255.03;3359863;86;98389;-87
2022/09/22 14:41:01;;;;;;;7.78;2.65;;;;;;;18.41;60.83;101250.73;3350990;87;34856;-87
2022/09/22 14:46:23;;;;;;;4.15;1.55;;;;;;;18.30;61.38;101252.19;3344182;85;98178;-87
2022/09/22 14:51:25;;;;;;;6.30;2.08;;;;;;;18.23;62.16;101250.05;3367992;85;98608;-87
2022/09/22 14:56:32;;;;;;;6.70;2.33;;;;;;;18.16;61.92;101241.13;3355464;87;34896;-87
2022/09/22 15:06:58;;;;;;;6.60;2.20;;;;;;;17.94;62.82;101241.69;3345339;87;34889;-87
2022/09/22 15:12:02;;;;;;;4.45;1.30;;;;;;;17.84;63.12;101234.19;3325749;87;98621;-86
2022/09/22 15:22:45;;;;;;;7.33;2.40;;;;;;;17.53;63.61;101234.55;3328490;87;98978;-86
2022/09/22 15:27:52;;;;;;;7.65;3.12;;;;;;;17.44;64.01;101232.78;3333083;87;34863;-86
2022/09/22 15:32:49;;;;;;;7.33;2.83;;;;;;;17.33;64.03;101225.66;3329062;85;99001;-87
2022/09/22 15:37:51;;;;;;;7.03;2.33;;;;;;;17.15;64.37;101228.49;3334860;87;33874;-88
2022/09/22 15:42:53;;;;;;;5.12;2.10;;;;;;;17.03;65.05;101226.14;3340536;85;98823;-86
2022/09/22 15:47:55;;;;;;;7.30;1.60;;;;;;;16.91;65.20;101225.77;3347197;85;34295;-85
2022/09/22 15:52:56;;;;;;;3.17;1.15;;;;;;;16.75;65.57;101226.79;3350280;85;98529;-85
2022/09/22 15:58:07;;;;;;;5.45;2.00;;;;;;;16.60;66.24;101224.63;3346898;85;33615;-85
2022/09/22 16:03:00;;;;;;;5.97;2.60;;;;;;;16.48;66.53;101227.81;3339883;85;98565;-85
2022/09/22 16:08:01;;;;;;;6.37;2.42;;;;;;;16.36;66.96;101231.55;3349159;85;33738;-85
2022/09/22 16:13:03;;;;;;;8.38;3.30;;;;;;;16.25;67.35;101222.41;3311630;87;98785;-86
2022/09/22 16:18:07;;;;;;;9.68;3.67;;;;;;;16.17;67.87;101220.80;3350718;85;35663;-86
2022/09/22 16:23:08;;;;;;;10.08;3.80;;;;;;;16.02;67.66;101212.28;3339981;85;99020;-85
2022/09/22 16:28:09;;;;;;;8.13;3.90;;;;;;;15.88;68.14;101222.77;3349668;87;35342;-86
2022/09/22 16:33:10;;;;;;;10.28;4.75;;;;;;;15.73;68.71;101218.36;3351241;85;98811;-86
2022/09/22 16:38:11;;;;;;;12.30;5.43;;;;;;;15.60;69.04;101217.11;3355057;85;31557;-85
2022/09/22 16:43:12;;;;;;;11.90;5.97;;;;;;;15.42;69.38;101219.04;3341859;85;99364;-86
2022/09/22 16:48:13;;;;;;;11.70;5.85;;;;;;;15.23;69.51;101214.36;3355261;87;31982;-86
2022/09/22 16:53:14;;;;;;;16.47;8.50;;;;;;;15.02;69.95;101210.09;3341319;87;98911;-85
2022/09/22 16:58:16;;;;;;;16.87;8.43;;;;;;;14.77;70.10;101217.48;3358334;87;28222;-86
2022/09/22 17:03:17;;;;;;;11.67;5.73;;;;;;;14.52;70.75;101216.50;3348339;87;99022;-86
2022/09/22 17:08:19;;;;;;;10.10;4.80;;;;;;;14.26;71.23;101206.41;3357216;87;26586;-87
2022/09/22 17:13:26;;;;;;;10.10;5.13;;;;;;;14.02;71.46;101209.70;3357116;85;99051;-87
2022/09/22 17:18:23;;;;;;;14.43;7.97;;;;;;;13.77;72.07;101211.44;3353671;85;31083;-87
2022/09/22 17:23:24;;;;;;;21.47;11.33;;;;;;;13.54;72.69;101214.95;3336774;87;98952;-87
2022/09/22 17:28:25;;;;;;;15.70;8.80;;;;;;;13.34;73.26;101215.47;3339879;87;26434;-87
2022/09/22 17:33:27;;;;;;;12.73;6.40;;;;;;;13.12;73.67;101213.60;3340906;87;98812;-87
2022/09/22 17:38:33;;;;;;;14.57;7.13;;;;;;;12.89;73.98;101214.25;3352237;85;32642;-86
2022/09/22 17:43:42;;;;;;;14.87;7.15;;;;;;;12.69;74.43;101216.91;3351967;87;98736;-86
2022/09/22 17:59:25;;;;;;;13.35;6.72;;;;;;;12.09;76.40;101213.75;3343593;87;34881;-86
2022/09/22 18:04:27;;;;;;;10.33;5.63;;;;;;;11.85;76.86;101207.22;3347468;87;99060;-88
2022/09/22 18:09:30;;;;;;;11.55;5.33;;;;;;;11.54;77.92;101201.86;3344962;85;35502;-87
2022/09/22 18:14:33;;;;;;;12.78;6.85;;;;;;;11.54;77.92;101201.86;3336439;87;98836;-88
2022/09/22 18:19:35;;;;;;;22.60;10.05;;;;;;;11.54;78.24;101225.30;3335712;85;35083;-87
2022/09/22 18:24:37;;;;;;;13.40;7.37;;;;;;;11.44;78.72;101230.05;3328999;86;99186;-89
2022/09/22 18:29:38;;;;;;;32.93;17.52;;;;;;;11.33;79.07;101233.16;3327843;87;33056;-88
2022/09/22 18:34:40;;;;;;;27.83;11.93;;;;;;;11.23;79.44;101233.73;3328252;86;99065;-87
2022/09/22 18:39:44;;;;;;;27.30;13.43;;;;;;;11.16;79.94;101234.94;3335862;87;27267;-87
2022/09/22 18:44:45;;;;;;;23.98;11.40;;;;;;;11.07;80.28;101240.66;3327588;87;99004;-89
2022/09/22 18:49:49;;;;;;;29.77;14.70;;;;;;;10.99;80.54;101243.05;3314036;87;35392;-90
2022/09/22 18:54:52;;;;;;;28.65;12.93;;;;;;;10.89;80.89;101243.61;3334483;87;99062;-90
2022/09/22 18:59:56;;;;;;;29.10;13.13;;;;;;;10.81;81.16;101241.86;3334545;87;35327;-90
2022/09/22 19:04:56;;;;;;;27.07;13.28;;;;;;;10.71;81.43;101236.91;3321344;87;98889;-90
2022/09/22 19:09:57;;;;;;;23.53;10.83;;;;;;;10.63;81.78;101237.88;3338418;87;27165;-90
2022/09/22 19:14:59;;;;;;;25.30;11.10;;;;;;;10.54;82.14;101238.67;3324289;87;98719;-90
2022/09/22 19:20:01;;;;;;;16.97;7.50;;;;;;;10.47;82.60;101239.84;3317185;87;32189;-87
2022/09/22 19:25:04;;;;;;;12.47;6.97;;;;;;;10.40;82.82;101237.50;3320387;87;98608;-87
2022/09/22 19:30:07;;;;;;;16.87;6.22;;;;;;;10.32;83.09;101247.55;3338653;87;34874;-87
2022/09/22 19:35:09;;;;;;;13.05;6.35;;;;;;;10.24;83.38;101246.36;3336316;86;98883;-87
2022/09/22 19:40:17;;;;;;;16.73;6.70;;;;;;;10.14;83.53;101240.78;3342128;86;27171;-88
2022/09/22 19:45:17;;;;;;;10.75;5.28;;;;;;;10.07;83.88;101234.30;3325678;87;98571;-88
2022/09/22 19:50:19;;;;;;;12.60;5.83;;;;;;;10.01;83.90;101239.81;3326758;86;34763;-88
2022/09/22 19:55:20;;;;;;;13.53;6.27;;;;;;;9.91;84.21;101234.27;3338896;86;98687;-88
2022/09/22 20:00:27;;;;;;;13.20;6.10;;;;;;;9.85;84.56;101238.98;3330314;87;27230;-87
2022/09/22 20:05:33;;;;;;;12.53;5.35;;;;;;;9.77;84.54;101241.34;3332009;86;98343;-87
2022/09/22 20:10:34;;;;;;;;;;;;;;;9.68;84.86;101232.44;3334142;87;25992;-87
2022/09/22 20:15:36;;;;;;;9.20;4.20;;;;;;;9.61;86.02;101238.56;3325911;86;84556;-86
2022/09/22 20:20:37;;;;;;;13.70;5.60;;;;;;;9.55;85.36;101236.41;3316423;86;35895;-86
2022/09/22 20:25:38;;;;;;;15.33;6.30;;;;;;;9.49;85.54;101233.69;3336393;87;98540;-87
2022/09/22 20:30:41;;;;;;;14.23;6.37;;;;;;;9.42;85.82;101240.34;3342795;87;32622;-86
2022/09/22 20:35:43;;;;;;;16.35;6.87;;;;;;;9.35;85.91;101234.09;3335992;87;98436;-87
2022/09/22 20:40:45;;;;;;;12.93;6.55;;;;;;;9.28;86.14;101233.08;3337538;85;33940;-87
2022/09/22 20:45:46;;;;;;;19.55;10.90;;;;;;;9.21;86.15;101239.75;3352547;87;98538;-87
2022/09/22 20:50:59;;;;;;;20.30;10.77;;;;;;;9.14;86.43;101247.20;3338336;87;26611;-87
2022/09/22 20:56:07;;;;;;;40.10;19.83;;;;;;;9.07;86.56;101238.76;3334757;86;98485;-86
2022/09/22 21:01:12;;;;;;;30.27;15.93;;;;;;;9.01;86.53;101240.70;3346542;86;108002;-86
2022/09/22 21:06:14;;;;;;;25.82;14.98;;;;;;;8.92;86.89;101233.98;3348072;87;34677;-85
2022/09/22 21:11:18;;;;;;;36.90;21.12;;;;;;;8.87;86.77;101232.03;3324486;87;98779;-86
2022/09/22 21:16:19;;;;;;;33.20;18.87;;;;;;;8.77;87.23;101221.55;3346700;87;36092;-86
2022/09/22 21:21:21;;;;;;;36.27;21.33;;;;;;;8.72;87.43;101225.31;3339707;87;102581;-85
2022/09/22 21:26:23;;;;;;;36.38;19.30;;;;;;;8.66;87.37;101217.09;3344055;87;35460;-86
2022/09/22 21:31:24;;;;;;;34.87;17.87;;;;;;;8.63;87.59;101223.84;3321847;87;99009;-86
2022/09/22 21:36:25;;;;;;;32.70;16.05;;;;;;;8.59;87.92;101218.81;3332609;86;36096;-86
2022/09/22 21:41:30;;;;;;;28.10;15.45;;;;;;;8.55;88.00;101220.63;3333750;86;98760;-85
2022/09/22 21:46:32;;;;;;;27.82;14.53;;;;;;;8.50;87.83;101222.27;3303712;87;34413;-85
2022/09/22 21:51:39;;;;;;;27.50;14.90;;;;;;;8.44;88.18;101216.75;3334865;86;98746;-86
2022/09/22 21:56:40;;;;;;;29.92;15.10;;;;;;;8.40;88.37;101214.48;3349007;86;35417;-87
2022/09/22 22:01:43;;;;;;;27.98;15.18;;;;;;;8.34;88.22;101219.98;3332855;87;98635;-87
2022/09/22 22:06:45;;;;;;;27.15;15.10;;;;;;;8.24;87.96;101215.72;3345603;86;35029;-88
2022/09/22 22:11:57;;;;;;;34.60;17.70;;;;;;;8.14;87.72;101213.98;3309281;87;98794;-87
2022/09/22 22:17:00;;;;;;;30.32;17.48;;;;;;;8.11;88.63;101218.77;3325153;86;34962;-87
2022/09/22 22:22:01;;;;;;;30.27;17.73;;;;;;;8.01;88.38;101213.75;3346054;87;98552;-87
2022/09/22 22:27:08;;;;;;;32.40;16.57;;;;;;;7.98;88.91;101220.71;3344410;87;26395;-87
2022/09/22 22:32:10;;;;;;;28.25;16.42;;;;;;;7.96;89.08;101218.86;3346464;85;98859;-88
2022/09/22 22:37:11;;;;;;;28.27;14.90;;;;;;;7.91;89.04;101212.81;3364605;85;34842;-87
2022/09/22 22:42:12;;;;;;;30.60;16.67;;;;;;;7.89;89.26;101212.33;3326800;86;98489;-87
2022/09/22 22:47:13;;;;;;;26.43;14.73;;;;;;;7.85;89.19;101210.84;3378809;85;25902;-87
2022/09/22 22:52:14;;;;;;;28.12;14.03;;;;;;;7.79;89.29;101207.31;3356687;85;98881;-87
2022/09/22 22:57:15;;;;;;;25.17;12.00;;;;;;;7.74;89.32;101195.98;3359885;86;32540;-87
2022/09/22 23:02:16;;;;;;;19.10;9.93;;;;;;;7.67;89.39;101201.23;3365059;86;98775;-87
2022/09/22 23:07:17;;;;;;;22.77;10.20;;;;;;;7.63;89.55;101197.55;3379718;85;32440;-88
2022/09/22 23:12:18;;;;;;;21.65;10.13;;;;;;;7.58;89.73;101194.24;3349841;85;98829;-88
2022/09/22 23:17:18;;;;;;;20.77;10.53;;;;;;;7.54;89.70;101192.76;3342103;87;32594;-87
2022/09/22 23:22:20;;;;;;;22.10;11.73;;;;;;;7.49;89.77;101188.05;3349166;86;98976;-87
2022/09/22 23:27:21;;;;;;;19.95;10.25;;;;;;;7.45;89.99;101184.38;3344434;87;32623;-87
2022/09/22 23:32:23;;;;;;;19.47;9.90;;;;;;;7.41;90.01;101186.98;3352124;85;99253;-87
2022/09/22 23:37:24;;;;;;;22.98;11.57;;;;;;;7.35;89.75;101176.58;3355686;87;31876;-87
2022/09/22 23:42:25;;;;;;;20.40;10.97;;;;;;;7.29;89.97;101181.48;3359945;87;98570;-87
2022/09/22 23:47:26;;;;;;;19.30;9.97;;;;;;;7.26;90.15;101174.51;3352056;85;25953;-87
2022/09/22 23:52:27;;;;;;;20.67;10.70;;;;;;;7.23;90.21;101174.61;3369396;85;98356;-87
2022/09/22 23:57:28;;;;;;;25.33;13.47;;;;;;;7.20;90.27;101171.16;3358278;85;26241;-87
